Time;durP1;ratioP1;P1;durP2;ratioP2;P2;SDS_P1;SDS_P2;PMS_P1;PMS_P2;Temp;Humidity;BMP_temperature;BMP_pressure;BME280_temperature;BME280_humidity;BME280_pressure;Samples;Min_cycle;Max_cycle;Signal;HPM_P1;HPM_P2
2023/06/10 00:02:08;;;;;;;8.37;7.77;;;;;;;;;;5074332;28;20631;-66
2023/06/10 00:04:37;;;;;;;10.70;7.80;;;;;;;;;;5074960;28;20629;-65
2023/06/10 00:07:08;;;;;;;8.77;8.07;;;;;;;;;;5073731;28;20590;-66
2023/06/10 00:09:37;;;;;;;8.53;7.73;;;;;;;;;;5081703;28;20652;-65
2023/06/10 00:12:06;;;;;;;9.97;8.97;;;;;;;;;;5094475;28;20613;-67
2023/06/10 00:14:34;;;;;;;8.47;7.83;;;;;;;;;;5092221;28;20709;-65
2023/06/10 00:17:03;;;;;;;11.93;9.93;;;;;;;;;;5105332;28;20729;-66
2023/06/10 00:19:31;;;;;;;8.50;7.80;;;;;;;;;;5098592;28;20692;-66
2023/06/10 00:21:59;;;;;;;8.97;8.30;;;;;;;;;;5109676;28;21157;-65
2023/06/10 00:24:29;;;;;;;9.47;8.53;;;;;;;;;;5105740;28;20685;-65
2023/06/10 00:26:57;;;;;;;9.30;8.40;;;;;;;;;;5109296;28;20657;-65
2023/06/10 00:29:25;;;;;;;8.73;8.10;;;;;;;;;;5091021;28;20686;-66
2023/06/10 00:31:57;;;;;;;9.50;8.70;;;;;;;;;;5093722;28;21178;-66
2023/06/10 00:34:25;;;;;;;9.03;8.23;;;;;;;;;;5093591;28;20641;-67
2023/06/10 00:36:54;;;;;;;9.40;8.50;;;;;;;;;;5094297;28;20605;-66
2023/06/10 00:39:22;;;;;;;9.47;8.80;;;;;;;;;;5076969;28;20731;-67
2023/06/10 00:41:51;;;;;;;9.90;9.00;;;;;;;;;;5094408;28;20627;-66
2023/06/10 00:44:19;;;;;;;10.07;9.27;;;;;;;;;;5093670;28;20989;-67
2023/06/10 00:46:49;;;;;;;9.33;8.17;;;;;;;;;;5092901;28;20625;-66
2023/06/10 00:49:18;;;;;;;8.93;8.23;;;;;;;;;;5074875;28;20875;-66
2023/06/10 00:51:46;;;;;;;10.20;9.40;;;;;;;;;;5095602;28;20726;-66
2023/06/10 00:54:16;;;;;;;10.70;9.70;;;;;;;;;;5075114;28;20653;-66
2023/06/10 00:56:45;;;;;;;9.37;8.57;;;;;;;;;;5094023;28;21029;-66
2023/06/10 00:59:15;;;;;;;9.77;8.50;;;;;;;;;;5094735;28;20655;-66
2023/06/10 01:01:46;;;;;;;12.37;8.77;;;;;;;;;;5077889;28;20613;-63
2023/06/10 01:04:19;;;;;;;9.60;8.70;;;;;;;;;;5076278;28;20629;-64
2023/06/10 01:06:52;;;;;;;9.53;8.60;;;;;;;;;;5095233;28;20573;-63
2023/06/10 01:09:25;;;;;;;9.13;8.23;;;;;;;;;;5094085;28;20591;-63
2023/06/10 01:11:58;;;;;;;12.60;8.90;;;;;;;;;;5094808;28;20694;-63
2023/06/10 01:14:29;;;;;;;10.40;9.33;;;;;;;;;;5075936;28;20636;-63
2023/06/10 01:16:57;;;;;;;10.87;8.40;;;;;;;;;;5077897;28;20633;-62
2023/06/10 01:19:25;;;;;;;9.40;8.70;;;;;;;;;;5094746;28;20634;-63
2023/06/10 01:21:55;;;;;;;9.67;8.57;;;;;;;;;;5077065;28;20602;-62
2023/06/10 01:24:23;;;;;;;9.30;8.40;;;;;;;;;;5093902;28;20621;-62
2023/06/10 01:26:53;;;;;;;9.13;8.47;;;;;;;;;;5094339;28;20625;-62
2023/06/10 01:29:23;;;;;;;9.40;8.60;;;;;;;;;;5085121;28;20980;-63
2023/06/10 01:31:53;;;;;;;10.10;9.27;;;;;;;;;;5074434;28;20701;-62
2023/06/10 01:34:39;;;;;;;9.73;8.80;;;;;;;;;;5069575;28;20645;-63
2023/06/10 01:37:09;;;;;;;11.00;9.53;;;;;;;;;;5094780;28;20932;-63
2023/06/10 01:39:44;;;;;;;10.10;9.23;;;;;;;;;;5093516;28;20605;-62
2023/06/10 01:42:13;;;;;;;12.37;9.40;;;;;;;;;;5094977;28;21151;-63
2023/06/10 01:44:41;;;;;;;9.80;9.10;;;;;;;;;;5093500;28;20621;-63
2023/06/10 01:47:10;;;;;;;9.67;8.83;;;;;;;;;;5075957;28;20617;-64
2023/06/10 01:49:38;;;;;;;8.83;7.93;;;;;;;;;;5076579;28;20624;-63
2023/06/10 01:52:07;;;;;;;9.40;8.60;;;;;;;;;;5093532;28;20625;-63
2023/06/10 01:54:37;;;;;;;8.60;8.00;;;;;;;;;;5076810;28;20671;-62
2023/06/10 01:57:06;;;;;;;9.30;8.53;;;;;;;;;;5094894;28;20612;-63
2023/06/10 01:59:34;;;;;;;9.10;8.20;;;;;;;;;;5076832;28;20657;-62
2023/06/10 02:02:02;;;;;;;11.30;8.93;;;;;;;;;;5094371;28;20629;-63
2023/06/10 02:04:30;;;;;;;12.23;9.57;;;;;;;;;;5075973;28;20625;-63
2023/06/10 02:07:04;;;;;;;12.23;9.00;;;;;;;;;;5076179;28;20959;-62
2023/06/10 02:09:34;;;;;;;9.73;7.70;;;;;;;;;;5095171;28;20698;-62
2023/06/10 02:12:05;;;;;;;9.67;8.80;;;;;;;;;;5094610;28;20691;-62
2023/06/10 02:14:36;;;;;;;9.23;8.43;;;;;;;;;;5076717;28;20637;-63
2023/06/10 02:17:04;;;;;;;9.60;8.63;;;;;;;;;;5093937;28;20614;-62
2023/06/10 02:19:36;;;;;;;9.87;8.67;;;;;;;;;;5095153;28;20617;-62
2023/06/10 02:22:04;;;;;;;9.10;8.30;;;;;;;;;;5093769;28;20605;-64
2023/06/10 02:24:33;;;;;;;9.07;8.27;;;;;;;;;;5090821;28;20632;-62
2023/06/10 02:27:02;;;;;;;9.30;8.50;;;;;;;;;;5094673;28;20609;-62
2023/06/10 02:29:31;;;;;;;8.97;8.17;;;;;;;;;;5094847;28;20578;-62
2023/06/10 02:31:59;;;;;;;10.10;9.20;;;;;;;;;;5094707;28;20606;-62
2023/06/10 02:34:28;;;;;;;9.43;8.37;;;;;;;;;;5076840;28;20660;-62
2023/06/10 02:36:57;;;;;;;9.73;8.90;;;;;;;;;;5077107;28;21136;-62
2023/06/10 02:39:26;;;;;;;9.10;8.27;;;;;;;;;;5076394;28;20629;-62
2023/06/10 02:41:55;;;;;;;9.60;8.70;;;;;;;;;;5076803;28;20639;-63
2023/06/10 02:44:24;;;;;;;9.87;9.13;;;;;;;;;;5076787;28;20620;-62
2023/06/10 02:46:53;;;;;;;10.20;9.37;;;;;;;;;;5085949;28;20641;-62
2023/06/10 02:49:21;;;;;;;11.30;9.53;;;;;;;;;;5062154;28;20629;-62
2023/06/10 02:51:53;;;;;;;12.23;10.23;;;;;;;;;;5093886;28;20668;-62
2023/06/10 02:54:22;;;;;;;11.87;10.87;;;;;;;;;;5093069;28;20632;-62
2023/06/10 02:56:51;;;;;;;11.63;10.63;;;;;;;;;;5093432;28;21253;-63
2023/06/10 02:59:23;;;;;;;11.97;10.97;;;;;;;;;;5077030;28;20672;-62
2023/06/10 03:01:51;;;;;;;13.57;10.40;;;;;;;;;;5092337;28;21224;-62
2023/06/10 03:04:23;;;;;;;11.30;10.30;;;;;;;;;;5068344;28;20619;-62
2023/06/10 03:07:00;;;;;;;11.40;10.40;;;;;;;;;;5065919;28;20605;-63
2023/06/10 03:09:32;;;;;;;12.23;10.93;;;;;;;;;;5076675;28;20646;-62
2023/06/10 03:12:03;;;;;;;10.90;10.00;;;;;;;;;;5076449;28;20578;-61
2023/06/10 03:14:36;;;;;;;11.40;10.40;;;;;;;;;;5075815;28;20647;-66
2023/06/10 03:17:08;;;;;;;11.53;9.97;;;;;;;;;;5092107;28;20609;-63
2023/06/10 03:19:39;;;;;;;11.47;10.27;;;;;;;;;;5075986;28;20611;-63
2023/06/10 03:22:11;;;;;;;11.60;10.00;;;;;;;;;;5094201;28;20605;-63
2023/06/10 03:24:43;;;;;;;13.27;11.97;;;;;;;;;;5091982;28;20611;-62
2023/06/10 03:27:13;;;;;;;11.63;10.57;;;;;;;;;;5075152;28;20617;-62
2023/06/10 03:29:42;;;;;;;11.73;10.53;;;;;;;;;;5075629;28;20640;-62
2023/06/10 03:32:12;;;;;;;11.73;10.73;;;;;;;;;;5076139;28;20958;-63
2023/06/10 03:34:47;;;;;;;11.07;10.07;;;;;;;;;;5076125;28;20653;-63
2023/06/10 03:37:16;;;;;;;11.63;10.30;;;;;;;;;;5072826;28;20698;-63
2023/06/10 03:39:47;;;;;;;10.63;9.70;;;;;;;;;;5057217;28;20646;-63
2023/06/10 03:42:15;;;;;;;12.30;11.00;;;;;;;;;;5093276;28;20646;-62
2023/06/10 03:44:43;;;;;;;11.40;10.40;;;;;;;;;;5075091;28;20618;-62
2023/06/10 03:47:12;;;;;;;10.43;9.43;;;;;;;;;;5075335;28;20621;-63
2023/06/10 03:49:40;;;;;;;11.27;10.13;;;;;;;;;;5093493;28;20631;-62
2023/06/10 03:52:11;;;;;;;13.23;10.43;;;;;;;;;;5064124;28;20991;-63
2023/06/10 03:54:39;;;;;;;11.37;10.37;;;;;;;;;;5094507;28;20974;-63
2023/06/10 03:57:07;;;;;;;11.40;10.40;;;;;;;;;;5075033;28;21058;-62
2023/06/10 03:59:36;;;;;;;10.83;9.93;;;;;;;;;;5075313;28;20656;-65
2023/06/10 04:02:06;;;;;;;11.37;10.20;;;;;;;;;;5074687;28;20621;-63
2023/06/10 04:04:36;;;;;;;11.63;10.53;;;;;;;;;;5074095;28;20633;-63
2023/06/10 04:07:04;;;;;;;10.93;9.97;;;;;;;;;;5093919;28;20625;-62
2023/06/10 04:09:34;;;;;;;10.30;9.40;;;;;;;;;;5076240;28;20628;-64
2023/06/10 04:12:02;;;;;;;22.23;9.60;;;;;;;;;;5076116;28;20617;-62
2023/06/10 04:14:31;;;;;;;11.60;10.50;;;;;;;;;;5076497;28;20629;-62
2023/06/10 04:16:59;;;;;;;11.03;9.80;;;;;;;;;;5061146;28;20631;-63
2023/06/10 04:19:28;;;;;;;10.27;9.37;;;;;;;;;;5096380;28;20635;-62
2023/06/10 04:21:57;;;;;;;10.90;10.00;;;;;;;;;;5078892;28;20621;-63
2023/06/10 04:24:25;;;;;;;10.70;9.67;;;;;;;;;;5078971;28;20629;-62
2023/06/10 04:26:54;;;;;;;11.07;9.97;;;;;;;;;;5077931;28;20635;-64
2023/06/10 04:29:23;;;;;;;11.40;9.70;;;;;;;;;;5095687;28;20651;-64
2023/06/10 04:31:52;;;;;;;12.47;9.77;;;;;;;;;;5078945;28;20981;-63
2023/06/10 04:34:21;;;;;;;16.20;11.00;;;;;;;;;;5078303;28;20981;-63
2023/06/10 04:36:50;;;;;;;11.03;10.00;;;;;;;;;;5096382;28;20668;-63
2023/06/10 04:39:19;;;;;;;11.33;10.37;;;;;;;;;;5077813;28;20635;-62
2023/06/10 04:41:48;;;;;;;10.37;9.53;;;;;;;;;;5078269;28;20712;-63
2023/06/10 04:44:18;;;;;;;10.20;9.30;;;;;;;;;;5078447;28;20669;-63
2023/06/10 04:46:47;;;;;;;10.73;9.70;;;;;;;;;;5075784;28;20617;-64
2023/06/10 04:49:16;;;;;;;11.53;10.43;;;;;;;;;;5096516;28;20613;-63
2023/06/10 04:51:44;;;;;;;11.20;10.20;;;;;;;;;;5078510;28;20613;-63
2023/06/10 04:54:12;;;;;;;13.80;11.07;;;;;;;;;;5058149;28;20610;-62
2023/06/10 04:56:41;;;;;;;11.07;10.20;;;;;;;;;;5074912;28;20650;-63
2023/06/10 04:59:09;;;;;;;11.27;10.37;;;;;;;;;;5069672;28;20646;-63
2023/06/10 05:01:39;;;;;;;11.83;10.73;;;;;;;;;;5095527;28;20694;-63
2023/06/10 05:04:07;;;;;;;11.73;10.20;;;;;;;;;;5095376;28;20636;-63
2023/06/10 05:06:36;;;;;;;11.57;10.47;;;;;;;;;;5095219;28;20997;-62
2023/06/10 05:09:05;;;;;;;11.67;10.57;;;;;;;;;;5095740;28;20627;-62
2023/06/10 05:11:33;;;;;;;11.90;10.90;;;;;;;;;;5095420;28;20740;-62
2023/06/10 05:14:01;;;;;;;11.57;10.67;;;;;;;;;;5095769;28;20628;-63
2023/06/10 05:16:29;;;;;;;12.47;11.07;;;;;;;;;;5094621;28;20657;-63
2023/06/10 05:18:59;;;;;;;12.60;11.50;;;;;;;;;;5077304;28;20632;-63
2023/06/10 05:21:27;;;;;;;12.03;10.90;;;;;;;;;;5078090;28;21033;-63
2023/06/10 05:23:55;;;;;;;12.93;11.73;;;;;;;;;;5085744;28;20666;-62
2023/06/10 05:26:25;;;;;;;12.57;11.37;;;;;;;;;;5095045;28;20617;-63
2023/06/10 05:28:53;;;;;;;11.53;10.43;;;;;;;;;;5095198;28;20709;-62
2023/06/10 05:31:21;;;;;;;11.83;10.83;;;;;;;;;;5095031;28;20636;-63
2023/06/10 05:33:50;;;;;;;12.37;11.10;;;;;;;;;;5095218;28;20700;-63
2023/06/10 05:36:19;;;;;;;11.47;10.50;;;;;;;;;;5094389;28;20660;-63
2023/06/10 05:38:48;;;;;;;11.97;11.07;;;;;;;;;;5094744;28;20666;-63
2023/06/10 05:41:16;;;;;;;12.03;10.90;;;;;;;;;;5094442;28;20629;-64
2023/06/10 05:43:44;;;;;;;14.00;11.07;;;;;;;;;;5094514;28;20628;-64
2023/06/10 05:46:12;;;;;;;12.43;11.20;;;;;;;;;;5094958;28;20621;-63
2023/06/10 05:48:41;;;;;;;12.70;11.43;;;;;;;;;;5094875;28;20617;-63
2023/06/10 05:51:10;;;;;;;11.33;10.33;;;;;;;;;;5095636;28;20643;-63
2023/06/10 05:53:40;;;;;;;12.90;10.77;;;;;;;;;;5077150;28;20627;-63
2023/06/10 05:56:08;;;;;;;16.07;11.20;;;;;;;;;;5095491;28;20649;-63
2023/06/10 05:58:36;;;;;;;11.50;10.50;;;;;;;;;;5094064;28;21136;-65
2023/06/10 06:01:04;;;;;;;13.57;10.57;;;;;;;;;;5095116;28;20722;-64
2023/06/10 06:03:33;;;;;;;11.80;9.80;;;;;;;;;;5075472;28;20623;-63
2023/06/10 06:06:01;;;;;;;10.63;9.60;;;;;;;;;;5094527;28;20728;-63
2023/06/10 06:08:29;;;;;;;11.03;9.93;;;;;;;;;;5094369;28;20670;-63
2023/06/10 06:10:59;;;;;;;15.10;9.40;;;;;;;;;;5094565;28;21059;-63
2023/06/10 06:13:27;;;;;;;10.93;9.97;;;;;;;;;;5093953;28;20626;-63
2023/06/10 06:15:55;;;;;;;9.77;8.87;;;;;;;;;;5094982;28;20657;-62
2023/06/10 06:18:23;;;;;;;10.87;9.30;;;;;;;;;;5094362;28;20728;-63
2023/06/10 06:20:51;;;;;;;9.03;8.33;;;;;;;;;;5095441;28;20615;-63
2023/06/10 06:23:20;;;;;;;10.43;9.40;;;;;;;;;;5076248;28;20706;-63
2023/06/10 06:25:48;;;;;;;9.57;8.77;;;;;;;;;;5094918;28;20613;-63
2023/06/10 06:28:18;;;;;;;9.63;8.93;;;;;;;;;;5075934;28;20915;-62
2023/06/10 06:30:47;;;;;;;9.80;9.10;;;;;;;;;;5094519;28;20642;-63
2023/06/10 06:33:15;;;;;;;11.40;9.83;;;;;;;;;;5076380;28;20712;-63
2023/06/10 06:35:44;;;;;;;10.33;9.33;;;;;;;;;;5094040;28;20617;-62
2023/06/10 06:38:12;;;;;;;10.27;9.40;;;;;;;;;;5093141;28;20616;-64
2023/06/10 06:40:40;;;;;;;10.00;9.03;;;;;;;;;;5094622;28;20609;-63
2023/06/10 06:43:08;;;;;;;10.33;9.43;;;;;;;;;;5092612;28;20633;-64
2023/06/10 06:46:00;;;;;;;9.80;9.00;;;;;;;;;;5093330;28;20607;-63
2023/06/10 06:48:28;;;;;;;9.30;8.60;;;;;;;;;;5086637;28;20613;-63
2023/06/10 06:50:58;;;;;;;9.93;9.20;;;;;;;;;;5093727;28;20628;-63
2023/06/10 06:53:26;;;;;;;9.47;8.73;;;;;;;;;;5072932;28;20633;-63
2023/06/10 06:55:54;;;;;;;15.20;8.80;;;;;;;;;;5093095;28;20637;-62
2023/06/10 06:58:23;;;;;;;9.30;8.33;;;;;;;;;;5092709;28;20649;-62
2023/06/10 07:00:51;;;;;;;9.83;9.00;;;;;;;;;;5093987;28;21151;-63
2023/06/10 07:03:21;;;;;;;8.60;7.83;;;;;;;;;;5092846;28;20695;-63
2023/06/10 07:05:49;;;;;;;8.47;7.80;;;;;;;;;;5090022;28;20625;-63
2023/06/10 07:08:17;;;;;;;8.63;7.80;;;;;;;;;;5091681;28;20622;-63
2023/06/10 07:10:45;;;;;;;8.93;8.03;;;;;;;;;;5099497;28;21058;-64
2023/06/10 07:13:13;;;;;;;8.20;7.40;;;;;;;;;;5080139;28;21159;-63
2023/06/10 07:15:42;;;;;;;9.13;8.23;;;;;;;;;;5098407;28;20629;-63
2023/06/10 07:18:10;;;;;;;7.87;7.33;;;;;;;;;;5080998;28;20698;-64
2023/06/10 07:20:41;;;;;;;8.23;7.57;;;;;;;;;;5091463;28;20628;-63
2023/06/10 07:23:09;;;;;;;7.73;7.13;;;;;;;;;;5090179;28;20609;-64
2023/06/10 07:25:37;;;;;;;8.07;7.37;;;;;;;;;;5093178;28;20621;-63
2023/06/10 07:28:05;;;;;;;7.80;7.30;;;;;;;;;;5088509;28;20648;-66
2023/06/10 07:30:34;;;;;;;10.70;8.13;;;;;;;;;;5085153;28;20620;-63
2023/06/10 07:33:02;;;;;;;7.90;7.20;;;;;;;;;;5091979;28;21192;-63
2023/06/10 07:35:30;;;;;;;8.03;7.30;;;;;;;;;;5094694;28;21186;-63
2023/06/10 07:38:00;;;;;;;6.63;6.13;;;;;;;;;;5070573;28;20648;-63
2023/06/10 07:40:28;;;;;;;9.07;8.17;;;;;;;;;;5087522;28;20990;-62
2023/06/10 07:42:57;;;;;;;7.73;6.73;;;;;;;;;;5074713;28;20987;-61
2023/06/10 07:45:25;;;;;;;7.90;7.20;;;;;;;;;;5087123;28;20639;-61
2023/06/10 07:47:53;;;;;;;7.47;6.80;;;;;;;;;;5090414;28;20621;-61
2023/06/10 07:50:22;;;;;;;7.17;6.67;;;;;;;;;;5075939;28;20621;-64
2023/06/10 07:52:50;;;;;;;8.30;6.53;;;;;;;;;;5094421;28;20636;-64
2023/06/10 07:55:20;;;;;;;6.80;6.40;;;;;;;;;;5094166;28;20631;-63
2023/06/10 07:57:48;;;;;;;6.70;6.30;;;;;;;;;;5076523;28;20653;-63
2023/06/10 08:00:17;;;;;;;7.90;7.17;;;;;;;;;;5102802;28;20656;-64
2023/06/10 08:02:46;;;;;;;6.87;6.30;;;;;;;;;;5078952;28;20613;-64
2023/06/10 08:05:14;;;;;;;6.40;6.00;;;;;;;;;;5096009;28;20617;-64
2023/06/10 08:07:42;;;;;;;8.67;6.20;;;;;;;;;;5096968;28;20624;-62
2023/06/10 08:10:11;;;;;;;6.40;6.00;;;;;;;;;;5081230;28;20641;-63
2023/06/10 08:12:41;;;;;;;6.93;6.47;;;;;;;;;;5097498;28;20636;-64
2023/06/10 08:15:10;;;;;;;7.10;6.60;;;;;;;;;;5076503;28;20624;-63
2023/06/10 08:17:38;;;;;;;7.57;7.07;;;;;;;;;;5094312;28;21006;-64
2023/06/10 08:20:07;;;;;;;7.57;6.97;;;;;;;;;;5095809;28;20608;-64
2023/06/10 08:22:36;;;;;;;7.33;6.93;;;;;;;;;;5095600;28;20686;-66
2023/06/10 08:25:04;;;;;;;6.70;6.20;;;;;;;;;;5100971;28;20679;-61
2023/06/10 08:27:33;;;;;;;6.87;5.87;;;;;;;;;;5099164;28;20705;-62
2023/06/10 08:30:02;;;;;;;7.07;6.57;;;;;;;;;;5093991;28;20620;-62
2023/06/10 08:32:32;;;;;;;9.20;7.20;;;;;;;;;;5094340;28;20579;-63
2023/06/10 08:35:00;;;;;;;7.97;6.67;;;;;;;;;;5093861;28;21190;-62
2023/06/10 08:37:28;;;;;;;6.87;6.37;;;;;;;;;;5075342;28;20657;-62
2023/06/10 08:39:57;;;;;;;6.60;6.20;;;;;;;;;;5073463;28;20614;-62
2023/06/10 08:42:29;;;;;;;6.83;6.43;;;;;;;;;;5088565;28;20629;-61
2023/06/10 08:44:58;;;;;;;7.37;6.60;;;;;;;;;;5098315;28;20619;-62
2023/06/10 08:47:35;;;;;;;7.07;6.63;;;;;;;;;;5093789;28;20675;-61
2023/06/10 08:50:12;;;;;;;6.13;5.53;;;;;;;;;;5055432;28;20636;-62
2023/06/10 08:52:44;;;;;;;6.43;6.03;;;;;;;;;;5069416;28;20621;-62
2023/06/10 08:55:12;;;;;;;6.93;6.53;;;;;;;;;;5093261;28;21151;-62
2023/06/10 08:57:42;;;;;;;7.33;6.70;;;;;;;;;;5094051;28;20661;-61
2023/06/10 09:00:11;;;;;;;6.60;6.30;;;;;;;;;;5092600;28;20656;-62
2023/06/10 09:02:41;;;;;;;6.77;6.27;;;;;;;;;;5093538;28;20647;-62
2023/06/10 09:05:10;;;;;;;8.37;6.20;;;;;;;;;;5079375;28;20617;-62
2023/06/10 09:07:38;;;;;;;6.67;6.27;;;;;;;;;;5094301;28;20625;-62
2023/06/10 09:10:07;;;;;;;7.40;7.00;;;;;;;;;;5075543;28;20645;-63
2023/06/10 09:12:37;;;;;;;6.90;6.40;;;;;;;;;;5086112;28;20614;-64
2023/06/10 09:15:06;;;;;;;6.60;6.10;;;;;;;;;;5075507;28;20693;-65
2023/06/10 09:17:36;;;;;;;7.30;6.70;;;;;;;;;;5094241;28;21220;-61
2023/06/10 09:20:06;;;;;;;6.33;5.93;;;;;;;;;;5075658;28;20617;-62
2023/06/10 09:22:34;;;;;;;6.13;5.73;;;;;;;;;;5090944;28;20615;-62
2023/06/10 09:25:07;;;;;;;6.50;6.20;;;;;;;;;;5066279;28;20626;-62
2023/06/10 09:27:45;;;;;;;6.83;6.23;;;;;;;;;;5085377;28;20612;-61
2023/06/10 09:30:25;;;;;;;6.97;6.37;;;;;;;;;;5075297;28;20596;-62
2023/06/10 09:32:55;;;;;;;6.30;6.00;;;;;;;;;;5074038;28;20571;-62
2023/06/10 09:35:25;;;;;;;7.40;5.97;;;;;;;;;;5057947;28;20731;-62
2023/06/10 09:37:54;;;;;;;8.00;7.20;;;;;;;;;;5102183;28;20217;-63
2023/06/10 09:40:23;;;;;;;7.03;6.50;;;;;;;;;;5092640;28;20617;-62
2023/06/10 09:42:54;;;;;;;7.13;6.63;;;;;;;;;;5093058;28;20685;-62
2023/06/10 09:45:23;;;;;;;7.63;7.03;;;;;;;;;;5101322;28;20946;-62
2023/06/10 09:47:53;;;;;;;6.70;6.30;;;;;;;;;;5098432;28;20625;-62
2023/06/10 09:50:22;;;;;;;7.10;6.60;;;;;;;;;;5074251;28;20947;-62
2023/06/10 09:52:52;;;;;;;7.10;6.70;;;;;;;;;;5092608;28;20617;-63
2023/06/10 09:55:20;;;;;;;7.13;6.73;;;;;;;;;;5092365;28;20605;-62
2023/06/10 09:57:50;;;;;;;14.73;13.53;;;;;;;;;;5090697;28;21319;-62
2023/06/10 10:00:19;;;;;;;7.13;6.60;;;;;;;;;;5080245;28;20735;-63
2023/06/10 10:02:49;;;;;;;8.57;6.80;;;;;;;;;;5090815;28;20616;-62
2023/06/10 10:05:17;;;;;;;7.27;6.87;;;;;;;;;;5111567;28;20985;-61
2023/06/10 10:07:47;;;;;;;7.33;6.63;;;;;;;;;;5097486;28;20721;-62
2023/06/10 10:10:18;;;;;;;6.87;6.30;;;;;;;;;;5087576;28;21215;-62
2023/06/10 10:12:48;;;;;;;7.70;7.20;;;;;;;;;;5091477;28;20922;-64
2023/06/10 10:15:18;;;;;;;7.50;6.80;;;;;;;;;;5091665;28;20616;-62
2023/06/10 10:17:47;;;;;;;6.50;6.10;;;;;;;;;;5092412;28;20649;-62
2023/06/10 10:20:18;;;;;;;7.47;6.97;;;;;;;;;;5069956;28;21049;-62
2023/06/10 10:22:48;;;;;;;7.40;6.73;;;;;;;;;;5087168;28;20685;-62
2023/06/10 10:25:24;;;;;;;7.40;7.00;;;;;;;;;;5086913;28;21244;-62
2023/06/10 10:27:53;;;;;;;7.20;6.70;;;;;;;;;;5067183;28;20960;-63
2023/06/10 10:30:22;;;;;;;7.47;6.87;;;;;;;;;;5070852;28;20621;-62
2023/06/10 10:32:57;;;;;;;7.50;7.10;;;;;;;;;;5045668;28;20619;-63
2023/06/10 10:35:26;;;;;;;8.83;8.13;;;;;;;;;;5087300;28;21132;-63
2023/06/10 10:37:55;;;;;;;7.33;6.83;;;;;;;;;;5089475;28;20661;-65
2023/06/10 10:40:25;;;;;;;6.83;6.43;;;;;;;;;;5099673;28;20629;-63
2023/06/10 10:42:54;;;;;;;7.10;6.80;;;;;;;;;;5091331;28;20974;-62
2023/06/10 10:45:23;;;;;;;7.63;7.00;;;;;;;;;;5075246;28;20628;-64
2023/06/10 10:47:55;;;;;;;7.50;7.00;;;;;;;;;;5092525;28;20621;-64
2023/06/10 10:50:24;;;;;;;7.73;7.13;;;;;;;;;;5072002;28;20840;-64
2023/06/10 10:52:56;;;;;;;6.50;6.20;;;;;;;;;;5061940;28;20613;-66
2023/06/10 10:55:26;;;;;;;7.00;6.70;;;;;;;;;;5092755;28;20594;-65
2023/06/10 10:57:58;;;;;;;8.23;7.43;;;;;;;;;;5093432;28;20639;-64
2023/06/10 11:00:28;;;;;;;8.50;7.07;;;;;;;;;;5080075;28;20653;-65
2023/06/10 11:02:59;;;;;;;7.67;7.07;;;;;;;;;;5099481;28;21039;-65
2023/06/10 11:05:38;;;;;;;7.27;6.73;;;;;;;;;;5102156;28;20589;-63
2023/06/10 11:08:07;;;;;;;7.47;7.00;;;;;;;;;;5104922;28;20727;-64
2023/06/10 11:10:38;;;;;;;7.53;7.03;;;;;;;;;;5095180;28;20673;-67
2023/06/10 11:13:10;;;;;;;7.67;7.00;;;;;;;;;;5096594;28;20667;-66
2023/06/10 11:15:46;;;;;;;7.47;6.73;;;;;;;;;;5099883;28;20612;-64
2023/06/10 11:18:15;;;;;;;7.70;7.17;;;;;;;;;;5099407;28;21043;-64
2023/06/10 11:20:54;;;;;;;7.40;7.00;;;;;;;;;;5092423;28;20617;-64
2023/06/10 11:23:36;;;;;;;6.97;6.57;;;;;;;;;;5104173;28;20600;-64
2023/06/10 11:26:15;;;;;;;7.80;7.30;;;;;;;;;;5097789;28;20625;-64
2023/06/10 11:29:02;;;;;;;8.07;7.47;;;;;;;;;;5096361;28;20677;-66
2023/06/10 11:31:31;;;;;;;7.93;7.27;;;;;;;;;;5073606;28;20601;-64
2023/06/10 11:34:00;;;;;;;7.40;6.87;;;;;;;;;;5094949;28;20712;-64
2023/06/10 11:36:29;;;;;;;7.73;7.10;;;;;;;;;;5096269;28;20625;-65
2023/06/10 11:38:58;;;;;;;6.90;6.40;;;;;;;;;;5101558;28;20652;-64
2023/06/10 11:41:28;;;;;;;6.97;6.43;;;;;;;;;;5103509;28;21086;-64
2023/06/10 11:43:57;;;;;;;7.50;7.00;;;;;;;;;;5097517;28;20694;-64
2023/06/10 11:46:27;;;;;;;7.27;6.67;;;;;;;;;;5098187;28;20609;-64
2023/06/10 11:48:56;;;;;;;7.83;7.40;;;;;;;;;;5096372;28;20617;-64
2023/06/10 11:51:26;;;;;;;7.50;7.00;;;;;;;;;;5095917;28;20676;-64
2023/06/10 11:53:55;;;;;;;7.47;6.90;;;;;;;;;;5096948;28;20585;-64
2023/06/10 11:56:23;;;;;;;7.20;6.80;;;;;;;;;;5101063;28;20687;-64
2023/06/10 11:58:55;;;;;;;8.00;7.60;;;;;;;;;;5115207;28;21221;-62
2023/06/10 12:01:24;;;;;;;8.13;7.53;;;;;;;;;;5068481;28;21020;-62
2023/06/10 12:03:59;;;;;;;8.57;7.83;;;;;;;;;;5069658;28;20965;-62
2023/06/10 12:06:28;;;;;;;7.97;7.37;;;;;;;;;;5102606;28;20592;-63
2023/06/10 12:08:56;;;;;;;8.13;7.53;;;;;;;;;;5101871;28;20620;-64
2023/06/10 12:11:25;;;;;;;8.23;7.73;;;;;;;;;;5078090;28;20663;-65
2023/06/10 12:13:54;;;;;;;7.83;7.33;;;;;;;;;;5105165;28;20621;-64
2023/06/10 12:16:23;;;;;;;7.53;7.03;;;;;;;;;;5096217;28;20602;-64
2023/06/10 12:18:51;;;;;;;8.27;7.33;;;;;;;;;;5098274;28;20737;-64
2023/06/10 12:21:20;;;;;;;8.33;7.57;;;;;;;;;;5105217;28;20623;-64
2023/06/10 12:24:05;;;;;;;7.47;6.93;;;;;;;;;;5106781;28;20745;-64
2023/06/10 12:26:40;;;;;;;7.10;6.70;;;;;;;;;;5087248;28;20600;-64
2023/06/10 12:29:18;;;;;;;8.07;7.40;;;;;;;;;;5109435;28;20598;-64
2023/06/10 12:32:12;;;;;;;6.90;6.50;;;;;;;;;;5105013;28;20605;-66
2023/06/10 12:34:41;;;;;;;7.60;6.90;;;;;;;;;;5094900;28;20604;-64
2023/06/10 12:37:13;;;;;;;7.67;7.27;;;;;;;;;;5093032;28;20659;-64
2023/06/10 12:39:42;;;;;;;7.60;7.20;;;;;;;;;;5094279;28;20656;-65
2023/06/10 12:42:10;;;;;;;7.17;6.67;;;;;;;;;;5098830;28;20617;-65
2023/06/10 12:44:42;;;;;;;7.67;7.10;;;;;;;;;;5105007;28;20621;-65
2023/06/10 12:47:12;;;;;;;10.00;7.20;;;;;;;;;;5105831;28;20653;-64
2023/06/10 12:49:40;;;;;;;7.30;6.87;;;;;;;;;;5094548;28;20654;-65
2023/06/10 12:52:08;;;;;;;7.20;6.80;;;;;;;;;;5089843;28;20640;-66
2023/06/10 12:54:37;;;;;;;7.73;7.33;;;;;;;;;;5089493;28;21185;-65
2023/06/10 12:57:05;;;;;;;7.90;7.50;;;;;;;;;;5091269;28;20609;-65
2023/06/10 12:59:34;;;;;;;8.30;7.80;;;;;;;;;;5076026;28;21305;-62
2023/06/10 13:02:03;;;;;;;7.43;6.90;;;;;;;;;;5097499;28;20639;-63
2023/06/10 13:04:31;;;;;;;7.30;6.60;;;;;;;;;;5093672;28;20633;-62
2023/06/10 13:07:00;;;;;;;7.03;6.60;;;;;;;;;;5095721;28;20624;-61
2023/06/10 13:09:29;;;;;;;7.60;7.00;;;;;;;;;;5080805;28;20651;-64
2023/06/10 13:11:57;;;;;;;7.80;7.10;;;;;;;;;;5071162;28;20690;-62
2023/06/10 13:14:25;;;;;;;7.60;7.00;;;;;;;;;;5091921;28;21212;-62
2023/06/10 13:16:54;;;;;;;7.67;7.27;;;;;;;;;;5073627;28;20621;-62
2023/06/10 13:19:24;;;;;;;7.07;6.63;;;;;;;;;;5074195;28;20659;-62
2023/06/10 13:21:53;;;;;;;7.30;6.90;;;;;;;;;;5070041;28;21232;-62
2023/06/10 13:24:21;;;;;;;6.50;6.20;;;;;;;;;;5072249;28;20672;-62
2023/06/10 13:26:49;;;;;;;7.10;6.80;;;;;;;;;;5073254;28;20610;-62
2023/06/10 13:29:18;;;;;;;7.30;6.80;;;;;;;;;;5073747;28;20622;-62
2023/06/10 13:31:46;;;;;;;6.87;6.23;;;;;;;;;;5074072;28;20613;-63
2023/06/10 13:34:14;;;;;;;7.40;6.77;;;;;;;;;;5074905;28;20625;-63
2023/06/10 13:36:44;;;;;;;6.60;6.30;;;;;;;;;;5074819;28;20622;-62
2023/06/10 13:39:13;;;;;;;6.80;6.40;;;;;;;;;;5074856;28;20675;-62
2023/06/10 13:41:42;;;;;;;7.00;6.60;;;;;;;;;;5074530;28;21206;-62
2023/06/10 13:44:10;;;;;;;6.63;6.30;;;;;;;;;;5056941;28;20615;-63
2023/06/10 13:46:38;;;;;;;7.40;6.90;;;;;;;;;;5073679;28;20614;-62
2023/06/10 13:49:06;;;;;;;7.87;6.83;;;;;;;;;;5055864;28;20640;-64
2023/06/10 13:51:35;;;;;;;8.23;6.97;;;;;;;;;;5073391;28;20627;-62
2023/06/10 13:54:04;;;;;;;10.73;7.40;;;;;;;;;;5073750;28;20623;-62
2023/06/10 13:56:37;;;;;;;7.07;6.67;;;;;;;;;;5073271;28;20707;-62
2023/06/10 13:59:05;;;;;;;7.10;6.60;;;;;;;;;;5073619;28;20650;-66
2023/06/10 14:01:34;;;;;;;7.07;6.57;;;;;;;;;;5073667;28;20610;-63
2023/06/10 14:04:02;;;;;;;6.73;6.37;;;;;;;;;;5055416;28;20614;-62
2023/06/10 14:06:32;;;;;;;7.47;6.40;;;;;;;;;;5074433;28;20621;-62
2023/06/10 14:09:00;;;;;;;7.13;6.50;;;;;;;;;;5073898;28;20614;-62
2023/06/10 14:11:30;;;;;;;6.97;6.57;;;;;;;;;;5073903;28;20997;-62
2023/06/10 14:13:58;;;;;;;7.60;7.20;;;;;;;;;;5073666;28;20947;-64
2023/06/10 14:16:26;;;;;;;6.97;6.60;;;;;;;;;;5074396;28;20618;-62
2023/06/10 14:18:55;;;;;;;8.80;6.90;;;;;;;;;;5073984;28;20622;-63
2023/06/10 14:21:23;;;;;;;7.07;6.57;;;;;;;;;;5056389;28;20660;-63
2023/06/10 14:23:53;;;;;;;6.63;6.17;;;;;;;;;;5073801;28;20677;-62
2023/06/10 14:26:21;;;;;;;6.80;6.50;;;;;;;;;;5056312;28;20615;-62
2023/06/10 14:28:51;;;;;;;6.63;6.30;;;;;;;;;;5073240;28;20598;-63
2023/06/10 14:31:19;;;;;;;6.87;6.47;;;;;;;;;;5073602;28;20663;-62
2023/06/10 14:33:47;;;;;;;6.93;6.53;;;;;;;;;;5072927;28;21164;-62
2023/06/10 14:36:16;;;;;;;6.50;6.10;;;;;;;;;;5073846;28;21179;-62
2023/06/10 14:38:46;;;;;;;6.40;6.10;;;;;;;;;;5076340;28;20618;-62
2023/06/10 14:41:14;;;;;;;7.27;6.90;;;;;;;;;;5073719;28;20702;-62
2023/06/10 14:43:42;;;;;;;6.50;6.10;;;;;;;;;;5073345;28;20614;-62
2023/06/10 14:46:12;;;;;;;6.63;6.20;;;;;;;;;;5073396;28;21064;-63
2023/06/10 14:48:40;;;;;;;7.10;6.57;;;;;;;;;;5073369;28;21447;-63
2023/06/10 14:51:08;;;;;;;6.60;6.20;;;;;;;;;;5074057;28;20641;-63